sensor_id;sensor_type;location;lat;lon;timestamp;P1;durP1;ratioP1;P2;durP2;ratioP2
25780;SDS011;13626;48.128;11.628;2024-03-08T00:02:24;18.52;;;10.23;;
25780;SDS011;13626;48.128;11.628;2024-03-08T00:04:51;18.55;;;10.05;;
25780;SDS011;13626;48.128;11.628;2024-03-08T00:07:19;16.23;;;9.82;;
25780;SDS011;13626;48.128;11.628;2024-03-08T00:09:46;19.95;;;10.80;;
25780;SDS011;13626;48.128;11.628;2024-03-08T00:12:14;18.77;;;9.82;;
25780;SDS011;13626;48.128;11.628;2024-03-08T00:14:41;19.40;;;10.57;;
25780;SDS011;13626;48.128;11.628;2024-03-08T00:17:08;20.70;;;10.27;;
25780;SDS011;13626;48.128;11.628;2024-03-08T00:19:36;17.73;;;9.82;;
25780;SDS011;13626;48.128;11.628;2024-03-08T00:22:03;21.45;;;10.90;;
25780;SDS011;13626;48.128;11.628;2024-03-08T00:24:30;20.25;;;10.88;;
25780;SDS011;13626;48.128;11.628;2024-03-08T00:26:58;20.30;;;10.68;;
25780;SDS011;13626;48.128;11.628;2024-03-08T00:29:25;19.23;;;11.10;;
25780;SDS011;13626;48.128;11.628;2024-03-08T00:31:53;20.65;;;11.68;;
25780;SDS011;13626;48.128;11.628;2024-03-08T00:34:21;21.08;;;10.38;;
25780;SDS011;13626;48.128;11.628;2024-03-08T00:36:48;20.15;;;10.98;;
25780;SDS011;13626;48.128;11.628;2024-03-08T00:39:16;19.42;;;10.65;;
25780;SDS011;13626;48.128;11.628;2024-03-08T00:41:47;20.55;;;11.38;;
25780;SDS011;13626;48.128;11.628;2024-03-08T00:44:14;24.00;;;11.60;;
25780;SDS011;13626;48.128;11.628;2024-03-08T00:46:42;21.33;;;11.32;;
25780;SDS011;13626;48.128;11.628;2024-03-08T00:49:09;21.08;;;10.68;;
25780;SDS011;13626;48.128;11.628;2024-03-08T00:51:38;21.90;;;11.77;;
25780;SDS011;13626;48.128;11.628;2024-03-08T00:54:06;19.65;;;10.90;;
25780;SDS011;13626;48.128;11.628;2024-03-08T00:56:33;25.45;;;12.30;;
25780;SDS011;13626;48.128;11.628;2024-03-08T00:59:01;22.90;;;11.45;;
25780;SDS011;13626;48.128;11.628;2024-03-08T01:01:28;22.42;;;12.00;;
25780;SDS011;13626;48.128;11.628;2024-03-08T01:03:56;24.00;;;11.68;;
25780;SDS011;13626;48.128;11.628;2024-03-08T01:06:23;22.85;;;11.27;;
25780;SDS011;13626;48.128;11.628;2024-03-08T01:08:50;21.40;;;11.57;;
25780;SDS011;13626;48.128;11.628;2024-03-08T01:11:19;22.45;;;11.98;;
25780;SDS011;13626;48.128;11.628;2024-03-08T01:13:46;24.00;;;12.13;;
25780;SDS011;13626;48.128;11.628;2024-03-08T01:16:13;21.88;;;11.95;;
25780;SDS011;13626;48.128;11.628;2024-03-08T01:18:42;23.63;;;12.43;;
25780;SDS011;13626;48.128;11.628;2024-03-08T01:21:10;22.52;;;11.95;;
25780;SDS011;13626;48.128;11.628;2024-03-08T01:23:37;23.02;;;11.68;;
25780;SDS011;13626;48.128;11.628;2024-03-08T01:26:05;23.60;;;12.43;;
25780;SDS011;13626;48.128;11.628;2024-03-08T01:28:32;22.38;;;12.13;;
25780;SDS011;13626;48.128;11.628;2024-03-08T01:31:01;25.63;;;12.48;;
25780;SDS011;13626;48.128;11.628;2024-03-08T01:33:29;25.05;;;12.63;;
25780;SDS011;13626;48.128;11.628;2024-03-08T01:35:58;25.17;;;12.23;;
25780;SDS011;13626;48.128;11.628;2024-03-08T01:38:25;22.10;;;12.43;;
25780;SDS011;13626;48.128;11.628;2024-03-08T01:40:52;24.60;;;12.52;;
25780;SDS011;13626;48.128;11.628;2024-03-08T01:43:20;24.13;;;12.73;;
25780;SDS011;13626;48.128;11.628;2024-03-08T01:45:48;23.88;;;12.75;;
25780;SDS011;13626;48.128;11.628;2024-03-08T01:48:15;23.13;;;12.10;;
25780;SDS011;13626;48.128;11.628;2024-03-08T01:50:44;25.80;;;12.70;;
25780;SDS011;13626;48.128;11.628;2024-03-08T01:53:11;23.15;;;12.70;;
25780;SDS011;13626;48.128;11.628;2024-03-08T01:55:41;25.58;;;13.23;;
25780;SDS011;13626;48.128;11.628;2024-03-08T01:58:09;25.38;;;12.88;;
25780;SDS011;13626;48.128;11.628;2024-03-08T02:00:38;23.98;;;12.13;;
25780;SDS011;13626;48.128;11.628;2024-03-08T02:03:07;25.58;;;12.73;;
25780;SDS011;13626;48.128;11.628;2024-03-08T02:05:34;25.30;;;12.45;;
25780;SDS011;13626;48.128;11.628;2024-03-08T02:08:02;26.15;;;13.48;;
25780;SDS011;13626;48.128;11.628;2024-03-08T02:10:30;22.52;;;12.40;;
25780;SDS011;13626;48.128;11.628;2024-03-08T02:12:58;25.90;;;14.02;;
25780;SDS011;13626;48.128;11.628;2024-03-08T02:15:26;25.58;;;12.95;;
25780;SDS011;13626;48.128;11.628;2024-03-08T02:17:53;27.60;;;12.70;;
25780;SDS011;13626;48.128;11.628;2024-03-08T02:20:21;28.27;;;12.05;;
25780;SDS011;13626;48.128;11.628;2024-03-08T02:22:49;26.02;;;12.75;;
25780;SDS011;13626;48.128;11.628;2024-03-08T02:25:17;23.70;;;12.48;;
25780;SDS011;13626;48.128;11.628;2024-03-08T02:27:44;26.45;;;13.73;;
25780;SDS011;13626;48.128;11.628;2024-03-08T02:30:12;25.58;;;13.07;;
25780;SDS011;13626;48.128;11.628;2024-03-08T02:32:39;23.50;;;12.55;;
25780;SDS011;13626;48.128;11.628;2024-03-08T02:35:07;23.23;;;12.35;;
25780;SDS011;13626;48.128;11.628;2024-03-08T02:37:34;28.17;;;13.68;;
25780;SDS011;13626;48.128;11.628;2024-03-08T02:40:01;26.02;;;13.48;;
25780;SDS011;13626;48.128;11.628;2024-03-08T02:42:29;26.17;;;12.80;;
25780;SDS011;13626;48.128;11.628;2024-03-08T02:44:56;22.98;;;12.82;;
25780;SDS011;13626;48.128;11.628;2024-03-08T02:47:24;26.48;;;13.00;;
25780;SDS011;13626;48.128;11.628;2024-03-08T02:49:53;24.92;;;13.13;;
25780;SDS011;13626;48.128;11.628;2024-03-08T02:52:20;24.58;;;12.95;;
25780;SDS011;13626;48.128;11.628;2024-03-08T02:54:48;25.13;;;12.43;;
25780;SDS011;13626;48.128;11.628;2024-03-08T02:57:16;30.38;;;13.77;;
25780;SDS011;13626;48.128;11.628;2024-03-08T02:59:43;24.50;;;12.45;;
25780;SDS011;13626;48.128;11.628;2024-03-08T03:02:12;27.98;;;13.40;;
25780;SDS011;13626;48.128;11.628;2024-03-08T03:04:40;31.20;;;14.15;;
25780;SDS011;13626;48.128;11.628;2024-03-08T03:07:07;25.67;;;12.85;;
25780;SDS011;13626;48.128;11.628;2024-03-08T03:09:34;26.33;;;13.10;;
25780;SDS011;13626;48.128;11.628;2024-03-08T03:12:02;26.63;;;12.57;;
25780;SDS011;13626;48.128;11.628;2024-03-08T03:14:30;27.88;;;13.55;;
25780;SDS011;13626;48.128;11.628;2024-03-08T03:16:57;24.95;;;13.35;;
25780;SDS011;13626;48.128;11.628;2024-03-08T03:19:24;26.83;;;13.85;;
25780;SDS011;13626;48.128;11.628;2024-03-08T03:21:54;23.65;;;13.05;;
25780;SDS011;13626;48.128;11.628;2024-03-08T03:24:21;25.40;;;13.38;;
25780;SDS011;13626;48.128;11.628;2024-03-08T03:26:49;28.10;;;13.75;;
25780;SDS011;13626;48.128;11.628;2024-03-08T03:29:18;24.77;;;12.95;;
25780;SDS011;13626;48.128;11.628;2024-03-08T03:31:46;31.90;;;14.50;;
25780;SDS011;13626;48.128;11.628;2024-03-08T03:34:13;27.25;;;13.35;;
25780;SDS011;13626;48.128;11.628;2024-03-08T03:36:41;24.92;;;12.88;;
25780;SDS011;13626;48.128;11.628;2024-03-08T03:39:11;25.05;;;12.52;;
25780;SDS011;13626;48.128;11.628;2024-03-08T03:41:42;29.50;;;13.98;;
25780;SDS011;13626;48.128;11.628;2024-03-08T03:44:12;29.55;;;14.30;;
25780;SDS011;13626;48.128;11.628;2024-03-08T03:46:42;26.95;;;13.90;;
25780;SDS011;13626;48.128;11.628;2024-03-08T03:49:12;28.63;;;14.48;;
25780;SDS011;13626;48.128;11.628;2024-03-08T03:51:40;27.73;;;13.95;;
25780;SDS011;13626;48.128;11.628;2024-03-08T03:54:07;29.60;;;14.45;;
25780;SDS011;13626;48.128;11.628;2024-03-08T03:56:35;30.55;;;13.98;;
25780;SDS011;13626;48.128;11.628;2024-03-08T03:59:02;28.55;;;14.23;;
25780;SDS011;13626;48.128;11.628;2024-03-08T04:01:29;32.60;;;14.85;;
25780;SDS011;13626;48.128;11.628;2024-03-08T04:03:58;28.35;;;14.27;;
25780;SDS011;13626;48.128;11.628;2024-03-08T04:06:25;31.30;;;15.38;;
25780;SDS011;13626;48.128;11.628;2024-03-08T04:08:52;27.50;;;13.70;;
25780;SDS011;13626;48.128;11.628;2024-03-08T04:11:20;27.42;;;13.50;;
25780;SDS011;13626;48.128;11.628;2024-03-08T04:13:47;24.92;;;13.60;;
25780;SDS011;13626;48.128;11.628;2024-03-08T04:16:14;28.15;;;13.93;;
25780;SDS011;13626;48.128;11.628;2024-03-08T04:18:42;30.35;;;13.93;;
25780;SDS011;13626;48.128;11.628;2024-03-08T04:21:09;32.92;;;15.27;;
25780;SDS011;13626;48.128;11.628;2024-03-08T04:23:37;31.88;;;15.52;;
25780;SDS011;13626;48.128;11.628;2024-03-08T04:26:05;29.15;;;14.57;;
25780;SDS011;13626;48.128;11.628;2024-03-08T04:28:33;29.88;;;15.13;;
25780;SDS011;13626;48.128;11.628;2024-03-08T04:31:00;32.17;;;15.95;;
25780;SDS011;13626;48.128;11.628;2024-03-08T04:33:27;31.52;;;14.75;;
25780;SDS011;13626;48.128;11.628;2024-03-08T04:35:55;32.25;;;15.55;;
25780;SDS011;13626;48.128;11.628;2024-03-08T04:38:22;29.10;;;15.70;;
25780;SDS011;13626;48.128;11.628;2024-03-08T04:40:51;29.83;;;15.55;;
25780;SDS011;13626;48.128;11.628;2024-03-08T04:43:18;32.25;;;16.52;;
25780;SDS011;13626;48.128;11.628;2024-03-08T04:45:46;33.00;;;17.05;;
25780;SDS011;13626;48.128;11.628;2024-03-08T04:48:14;35.38;;;17.38;;
25780;SDS011;13626;48.128;11.628;2024-03-08T04:50:42;33.10;;;15.63;;
25780;SDS011;13626;48.128;11.628;2024-03-08T04:53:11;35.58;;;17.23;;
25780;SDS011;13626;48.128;11.628;2024-03-08T04:55:38;36.90;;;17.20;;
25780;SDS011;13626;48.128;11.628;2024-03-08T04:58:05;39.03;;;18.58;;
25780;SDS011;13626;48.128;11.628;2024-03-08T05:00:33;32.70;;;16.95;;
25780;SDS011;13626;48.128;11.628;2024-03-08T05:03:00;34.67;;;17.55;;
25780;SDS011;13626;48.128;11.628;2024-03-08T05:05:28;37.28;;;18.73;;
25780;SDS011;13626;48.128;11.628;2024-03-08T05:07:56;35.53;;;18.08;;
25780;SDS011;13626;48.128;11.628;2024-03-08T05:10:24;36.47;;;17.83;;
25780;SDS011;13626;48.128;11.628;2024-03-08T05:12:51;34.10;;;17.73;;
25780;SDS011;13626;48.128;11.628;2024-03-08T05:15:22;33.03;;;16.27;;
25780;SDS011;13626;48.128;11.628;2024-03-08T05:17:49;39.95;;;18.83;;
25780;SDS011;13626;48.128;11.628;2024-03-08T05:20:17;32.03;;;16.98;;
25780;SDS011;13626;48.128;11.628;2024-03-08T05:22:45;34.58;;;17.33;;
25780;SDS011;13626;48.128;11.628;2024-03-08T05:25:13;35.38;;;17.58;;
25780;SDS011;13626;48.128;11.628;2024-03-08T05:27:40;37.92;;;18.10;;
25780;SDS011;13626;48.128;11.628;2024-03-08T05:30:07;32.03;;;16.83;;
25780;SDS011;13626;48.128;11.628;2024-03-08T05:32:41;33.90;;;17.63;;
25780;SDS011;13626;48.128;11.628;2024-03-08T05:35:12;34.42;;;17.38;;
25780;SDS011;13626;48.128;11.628;2024-03-08T05:37:42;33.92;;;16.83;;
25780;SDS011;13626;48.128;11.628;2024-03-08T05:40:10;32.25;;;16.90;;
25780;SDS011;13626;48.128;11.628;2024-03-08T05:42:43;30.00;;;16.60;;
25780;SDS011;13626;48.128;11.628;2024-03-08T05:45:10;37.40;;;17.05;;
25780;SDS011;13626;48.128;11.628;2024-03-08T05:47:39;32.55;;;17.02;;
25780;SDS011;13626;48.128;11.628;2024-03-08T05:50:06;34.42;;;17.20;;
25780;SDS011;13626;48.128;11.628;2024-03-08T05:52:37;31.75;;;16.42;;
25780;SDS011;13626;48.128;11.628;2024-03-08T05:55:05;30.63;;;15.63;;
25780;SDS011;13626;48.128;11.628;2024-03-08T05:57:34;33.95;;;16.25;;
25780;SDS011;13626;48.128;11.628;2024-03-08T06:00:04;30.15;;;15.60;;
25780;SDS011;13626;48.128;11.628;2024-03-08T06:02:31;31.65;;;16.77;;
25780;SDS011;13626;48.128;11.628;2024-03-08T06:04:59;32.10;;;17.00;;
25780;SDS011;13626;48.128;11.628;2024-03-08T06:07:28;33.20;;;17.35;;
25780;SDS011;13626;48.128;11.628;2024-03-08T06:09:56;30.33;;;16.10;;
25780;SDS011;13626;48.128;11.628;2024-03-08T06:12:23;33.60;;;16.00;;
25780;SDS011;13626;48.128;11.628;2024-03-08T06:14:55;31.45;;;16.08;;
25780;SDS011;13626;48.128;11.628;2024-03-08T06:17:22;33.58;;;16.50;;
25780;SDS011;13626;48.128;11.628;2024-03-08T06:19:52;32.30;;;16.40;;
25780;SDS011;13626;48.128;11.628;2024-03-08T06:22:20;30.83;;;16.25;;
25780;SDS011;13626;48.128;11.628;2024-03-08T06:24:48;29.27;;;15.38;;
25780;SDS011;13626;48.128;11.628;2024-03-08T06:27:15;33.53;;;16.13;;
25780;SDS011;13626;48.128;11.628;2024-03-08T06:29:43;31.70;;;16.38;;
25780;SDS011;13626;48.128;11.628;2024-03-08T06:32:11;32.03;;;15.52;;
25780;SDS011;13626;48.128;11.628;2024-03-08T06:34:38;29.17;;;14.68;;
25780;SDS011;13626;48.128;11.628;2024-03-08T06:37:05;31.75;;;15.57;;
25780;SDS011;13626;48.128;11.628;2024-03-08T06:39:34;28.75;;;14.80;;
25780;SDS011;13626;48.128;11.628;2024-03-08T06:42:11;31.25;;;15.90;;
25780;SDS011;13626;48.128;11.628;2024-03-08T06:44:41;30.77;;;15.10;;
25780;SDS011;13626;48.128;11.628;2024-03-08T06:47:18;62.60;;;22.73;;
25780;SDS011;13626;48.128;11.628;2024-03-08T06:49:52;37.63;;;17.02;;
25780;SDS011;13626;48.128;11.628;2024-03-08T06:52:19;30.92;;;15.45;;
25780;SDS011;13626;48.128;11.628;2024-03-08T06:54:48;30.23;;;14.98;;
25780;SDS011;13626;48.128;11.628;2024-03-08T06:57:15;34.92;;;16.10;;
25780;SDS011;13626;48.128;11.628;2024-03-08T06:59:43;29.42;;;15.32;;
25780;SDS011;13626;48.128;11.628;2024-03-08T07:02:11;32.30;;;15.00;;
25780;SDS011;13626;48.128;11.628;2024-03-08T07:04:38;30.33;;;14.85;;
25780;SDS011;13626;48.128;11.628;2024-03-08T07:07:05;31.33;;;15.70;;
25780;SDS011;13626;48.128;11.628;2024-03-08T07:09:37;29.80;;;14.32;;
25780;SDS011;13626;48.128;11.628;2024-03-08T07:12:04;30.95;;;15.00;;
25780;SDS011;13626;48.128;11.628;2024-03-08T07:14:32;30.23;;;14.52;;
25780;SDS011;13626;48.128;11.628;2024-03-08T07:17:00;26.00;;;13.73;;
25780;SDS011;13626;48.128;11.628;2024-03-08T07:19:31;28.85;;;15.25;;
25780;SDS011;13626;48.128;11.628;2024-03-08T07:21:58;30.80;;;14.88;;
25780;SDS011;13626;48.128;11.628;2024-03-08T07:24:26;26.92;;;14.13;;
25780;SDS011;13626;48.128;11.628;2024-03-08T07:27:06;27.10;;;13.27;;
25780;SDS011;13626;48.128;11.628;2024-03-08T07:29:33;28.45;;;14.32;;
25780;SDS011;13626;48.128;11.628;2024-03-08T07:32:01;23.85;;;13.27;;
25780;SDS011;13626;48.128;11.628;2024-03-08T07:34:44;26.45;;;12.82;;
25780;SDS011;13626;48.128;11.628;2024-03-08T07:37:11;23.92;;;13.43;;
25780;SDS011;13626;48.128;11.628;2024-03-08T07:39:40;27.33;;;13.63;;
25780;SDS011;13626;48.128;11.628;2024-03-08T07:42:07;29.02;;;14.15;;
25780;SDS011;13626;48.128;11.628;2024-03-08T07:44:36;25.90;;;13.25;;
25780;SDS011;13626;48.128;11.628;2024-03-08T07:47:03;32.63;;;14.65;;
25780;SDS011;13626;48.128;11.628;2024-03-08T07:49:31;25.50;;;13.65;;
25780;SDS011;13626;48.128;11.628;2024-03-08T07:51:58;24.50;;;12.55;;
25780;SDS011;13626;48.128;11.628;2024-03-08T07:54:25;24.52;;;12.77;;
25780;SDS011;13626;48.128;11.628;2024-03-08T07:56:53;24.13;;;13.52;;
25780;SDS011;13626;48.128;11.628;2024-03-08T07:59:20;21.67;;;12.65;;
25780;SDS011;13626;48.128;11.628;2024-03-08T08:01:47;21.75;;;12.90;;
25780;SDS011;13626;48.128;11.628;2024-03-08T08:04:15;21.50;;;12.82;;
25780;SDS011;13626;48.128;11.628;2024-03-08T08:06:44;24.30;;;12.38;;
25780;SDS011;13626;48.128;11.628;2024-03-08T08:09:11;22.48;;;12.35;;
25780;SDS011;13626;48.128;11.628;2024-03-08T08:11:43;20.65;;;13.32;;
25780;SDS011;13626;48.128;11.628;2024-03-08T08:14:10;23.30;;;13.65;;
25780;SDS011;13626;48.128;11.628;2024-03-08T08:16:38;21.95;;;13.85;;
25780;SDS011;13626;48.128;11.628;2024-03-08T08:19:07;23.95;;;15.07;;
25780;SDS011;13626;48.128;11.628;2024-03-08T08:21:36;21.48;;;14.00;;
25780;SDS011;13626;48.128;11.628;2024-03-08T08:24:04;22.00;;;14.45;;
25780;SDS011;13626;48.128;11.628;2024-03-08T08:26:31;23.58;;;14.30;;
25780;SDS011;13626;48.128;11.628;2024-03-08T08:29:05;22.05;;;13.43;;
25780;SDS011;13626;48.128;11.628;2024-03-08T08:31:33;22.35;;;14.20;;
25780;SDS011;13626;48.128;11.628;2024-03-08T08:34:00;21.75;;;13.73;;
25780;SDS011;13626;48.128;11.628;2024-03-08T08:36:29;20.60;;;12.98;;
25780;SDS011;13626;48.128;11.628;2024-03-08T08:38:57;19.15;;;12.35;;
25780;SDS011;13626;48.128;11.628;2024-03-08T08:41:25;20.42;;;12.60;;
25780;SDS011;13626;48.128;11.628;2024-03-08T08:43:53;19.45;;;13.13;;
25780;SDS011;13626;48.128;11.628;2024-03-08T08:46:34;22.48;;;13.93;;
25780;SDS011;13626;48.128;11.628;2024-03-08T08:49:07;20.70;;;13.70;;
25780;SDS011;13626;48.128;11.628;2024-03-08T08:51:37;22.40;;;13.90;;
25780;SDS011;13626;48.128;11.628;2024-03-08T08:54:05;19.40;;;13.23;;
25780;SDS011;13626;48.128;11.628;2024-03-08T08:56:38;21.02;;;13.77;;
25780;SDS011;13626;48.128;11.628;2024-03-08T08:59:05;21.88;;;13.02;;
25780;SDS011;13626;48.128;11.628;2024-03-08T09:01:34;19.60;;;12.50;;
25780;SDS011;13626;48.128;11.628;2024-03-08T09:04:01;20.05;;;13.73;;
25780;SDS011;13626;48.128;11.628;2024-03-08T09:06:29;22.08;;;13.40;;
25780;SDS011;13626;48.128;11.628;2024-03-08T09:08:56;19.63;;;13.85;;
25780;SDS011;13626;48.128;11.628;2024-03-08T09:11:24;18.70;;;12.63;;
25780;SDS011;13626;48.128;11.628;2024-03-08T09:13:51;19.65;;;12.68;;
25780;SDS011;13626;48.128;11.628;2024-03-08T09:16:19;19.98;;;13.65;;
25780;SDS011;13626;48.128;11.628;2024-03-08T09:18:46;19.88;;;13.23;;
25780;SDS011;13626;48.128;11.628;2024-03-08T09:21:14;21.63;;;13.30;;
25780;SDS011;13626;48.128;11.628;2024-03-08T09:23:41;18.55;;;13.00;;
25780;SDS011;13626;48.128;11.628;2024-03-08T09:26:11;20.42;;;13.23;;
25780;SDS011;13626;48.128;11.628;2024-03-08T09:28:51;21.23;;;13.68;;
25780;SDS011;13626;48.128;11.628;2024-03-08T09:31:18;19.10;;;12.90;;
25780;SDS011;13626;48.128;11.628;2024-03-08T09:33:46;19.25;;;13.85;;
25780;SDS011;13626;48.128;11.628;2024-03-08T09:36:13;18.15;;;12.95;;
25780;SDS011;13626;48.128;11.628;2024-03-08T09:38:41;17.75;;;13.48;;
25780;SDS011;13626;48.128;11.628;2024-03-08T09:41:09;19.48;;;14.35;;
25780;SDS011;13626;48.128;11.628;2024-03-08T09:43:37;21.35;;;14.73;;
25780;SDS011;13626;48.128;11.628;2024-03-08T09:46:04;17.40;;;13.65;;
25780;SDS011;13626;48.128;11.628;2024-03-08T09:48:34;18.50;;;14.13;;
25780;SDS011;13626;48.128;11.628;2024-03-08T09:51:03;21.38;;;15.10;;
25780;SDS011;13626;48.128;11.628;2024-03-08T09:53:30;22.13;;;16.38;;
25780;SDS011;13626;48.128;11.628;2024-03-08T09:55:57;18.92;;;14.43;;
25780;SDS011;13626;48.128;11.628;2024-03-08T09:58:25;21.33;;;15.95;;
25780;SDS011;13626;48.128;11.628;2024-03-08T10:00:59;20.40;;;15.35;;
25780;SDS011;13626;48.128;11.628;2024-03-08T10:03:37;21.00;;;16.10;;
25780;SDS011;13626;48.128;11.628;2024-03-08T10:06:04;21.42;;;15.00;;
25780;SDS011;13626;48.128;11.628;2024-03-08T10:08:32;20.90;;;14.45;;
25780;SDS011;13626;48.128;11.628;2024-03-08T10:11:00;22.23;;;15.32;;
25780;SDS011;13626;48.128;11.628;2024-03-08T10:13:28;19.20;;;14.82;;
25780;SDS011;13626;48.128;11.628;2024-03-08T10:15:56;17.73;;;13.05;;
25780;SDS011;13626;48.128;11.628;2024-03-08T10:18:23;17.80;;;13.30;;
25780;SDS011;13626;48.128;11.628;2024-03-08T10:21:06;16.95;;;13.13;;
25780;SDS011;13626;48.128;11.628;2024-03-08T10:23:36;16.88;;;13.45;;
25780;SDS011;13626;48.128;11.628;2024-03-08T10:26:14;16.02;;;11.88;;
25780;SDS011;13626;48.128;11.628;2024-03-08T10:28:42;16.70;;;13.43;;
25780;SDS011;13626;48.128;11.628;2024-03-08T10:31:09;18.08;;;13.23;;
25780;SDS011;13626;48.128;11.628;2024-03-08T10:33:38;16.42;;;13.35;;
25780;SDS011;13626;48.128;11.628;2024-03-08T10:36:06;18.45;;;13.35;;
25780;SDS011;13626;48.128;11.628;2024-03-08T10:38:38;18.10;;;12.80;;
25780;SDS011;13626;48.128;11.628;2024-03-08T10:41:07;17.45;;;12.60;;
25780;SDS011;13626;48.128;11.628;2024-03-08T10:44:01;18.48;;;12.48;;
25780;SDS011;13626;48.128;11.628;2024-03-08T10:49:00;16.58;;;11.60;;
25780;SDS011;13626;48.128;11.628;2024-03-08T10:51:29;15.35;;;10.80;;
25780;SDS011;13626;48.128;11.628;2024-03-08T10:53:58;15.73;;;9.60;;
25780;SDS011;13626;48.128;11.628;2024-03-08T10:56:26;17.65;;;10.85;;
25780;SDS011;13626;48.128;11.628;2024-03-08T10:58:54;17.65;;;10.77;;
25780;SDS011;13626;48.128;11.628;2024-03-08T11:01:22;18.50;;;10.98;;
25780;SDS011;13626;48.128;11.628;2024-03-08T11:03:52;14.35;;;9.55;;
25780;SDS011;13626;48.128;11.628;2024-03-08T11:06:28;18.80;;;11.00;;
25780;SDS011;13626;48.128;11.628;2024-03-08T11:08:56;17.05;;;10.15;;
25780;SDS011;13626;48.128;11.628;2024-03-08T11:11:25;17.88;;;10.52;;
25780;SDS011;13626;48.128;11.628;2024-03-08T11:14:01;18.25;;;10.73;;
25780;SDS011;13626;48.128;11.628;2024-03-08T11:18:59;22.00;;;10.95;;
25780;SDS011;13626;48.128;11.628;2024-03-08T11:21:31;19.50;;;11.10;;
25780;SDS011;13626;48.128;11.628;2024-03-08T11:26:34;18.35;;;11.82;;
25780;SDS011;13626;48.128;11.628;2024-03-08T11:31:48;21.00;;;11.65;;
25780;SDS011;13626;48.128;11.628;2024-03-08T11:34:15;17.90;;;11.23;;
25780;SDS011;13626;48.128;11.628;2024-03-08T11:36:43;21.13;;;11.63;;
25780;SDS011;13626;48.128;11.628;2024-03-08T11:39:10;21.25;;;11.48;;
25780;SDS011;13626;48.128;11.628;2024-03-08T11:41:41;20.00;;;11.52;;
25780;SDS011;13626;48.128;11.628;2024-03-08T11:44:11;20.98;;;11.52;;
25780;SDS011;13626;48.128;11.628;2024-03-08T11:46:42;19.95;;;11.60;;
25780;SDS011;13626;48.128;11.628;2024-03-08T11:49:14;20.63;;;11.82;;
25780;SDS011;13626;48.128;11.628;2024-03-08T11:51:41;17.85;;;11.52;;
25780;SDS011;13626;48.128;11.628;2024-03-08T11:54:12;20.58;;;12.48;;
25780;SDS011;13626;48.128;11.628;2024-03-08T11:56:39;22.70;;;11.52;;
25780;SDS011;13626;48.128;11.628;2024-03-08T11:59:10;18.92;;;11.38;;
25780;SDS011;13626;48.128;11.628;2024-03-08T12:01:39;17.02;;;10.55;;
25780;SDS011;13626;48.128;11.628;2024-03-08T12:04:06;19.92;;;11.45;;
25780;SDS011;13626;48.128;11.628;2024-03-08T12:06:39;20.48;;;11.48;;
25780;SDS011;13626;48.128;11.628;2024-03-08T12:09:08;19.50;;;10.68;;
25780;SDS011;13626;48.128;11.628;2024-03-08T12:11:36;18.85;;;10.65;;
25780;SDS011;13626;48.128;11.628;2024-03-08T12:14:04;16.30;;;10.05;;
25780;SDS011;13626;48.128;11.628;2024-03-08T12:16:32;17.70;;;9.80;;
25780;SDS011;13626;48.128;11.628;2024-03-08T12:19:00;16.98;;;10.95;;
25780;SDS011;13626;48.128;11.628;2024-03-08T12:21:31;21.05;;;11.32;;
25780;SDS011;13626;48.128;11.628;2024-03-08T12:24:03;19.50;;;11.18;;
25780;SDS011;13626;48.128;11.628;2024-03-08T12:26:30;17.20;;;10.43;;
25780;SDS011;13626;48.128;11.628;2024-03-08T12:29:14;18.45;;;10.18;;
25780;SDS011;13626;48.128;11.628;2024-03-08T12:31:47;17.02;;;10.30;;
25780;SDS011;13626;48.128;11.628;2024-03-08T12:34:14;17.70;;;10.77;;
25780;SDS011;13626;48.128;11.628;2024-03-08T12:36:45;17.00;;;10.45;;
25780;SDS011;13626;48.128;11.628;2024-03-08T12:39:17;17.42;;;10.05;;
25780;SDS011;13626;48.128;11.628;2024-03-08T12:44:19;18.95;;;10.35;;
25780;SDS011;13626;48.128;11.628;2024-03-08T12:46:48;23.45;;;11.15;;
25780;SDS011;13626;48.128;11.628;2024-03-08T12:49:19;20.48;;;11.55;;
25780;SDS011;13626;48.128;11.628;2024-03-08T12:51:49;18.80;;;11.13;;
25780;SDS011;13626;48.128;11.628;2024-03-08T12:54:16;21.05;;;11.90;;
25780;SDS011;13626;48.128;11.628;2024-03-08T12:56:43;20.55;;;11.73;;
25780;SDS011;13626;48.128;11.628;2024-03-08T12:59:12;18.77;;;11.25;;
25780;SDS011;13626;48.128;11.628;2024-03-08T13:01:40;21.02;;;13.07;;
25780;SDS011;13626;48.128;11.628;2024-03-08T13:04:07;20.13;;;11.93;;
25780;SDS011;13626;48.128;11.628;2024-03-08T13:06:37;22.38;;;12.15;;
25780;SDS011;13626;48.128;11.628;2024-03-08T13:09:05;17.42;;;11.50;;
25780;SDS011;13626;48.128;11.628;2024-03-08T13:11:32;17.77;;;10.65;;
25780;SDS011;13626;48.128;11.628;2024-03-08T13:14:04;15.10;;;9.38;;
25780;SDS011;13626;48.128;11.628;2024-03-08T13:16:34;17.48;;;10.65;;
25780;SDS011;13626;48.128;11.628;2024-03-08T13:19:02;19.95;;;11.00;;
25780;SDS011;13626;48.128;11.628;2024-03-08T13:21:29;19.50;;;10.85;;
25780;SDS011;13626;48.128;11.628;2024-03-08T13:23:57;18.13;;;10.25;;
25780;SDS011;13626;48.128;11.628;2024-03-08T13:26:27;16.05;;;9.77;;
25780;SDS011;13626;48.128;11.628;2024-03-08T13:28:59;18.25;;;10.52;;
25780;SDS011;13626;48.128;11.628;2024-03-08T13:31:28;19.48;;;12.30;;
25780;SDS011;13626;48.128;11.628;2024-03-08T13:33:56;20.83;;;11.20;;
25780;SDS011;13626;48.128;11.628;2024-03-08T13:36:29;17.73;;;10.85;;
25780;SDS011;13626;48.128;11.628;2024-03-08T13:39:05;18.17;;;10.45;;
25780;SDS011;13626;48.128;11.628;2024-03-08T13:41:41;19.92;;;11.68;;
25780;SDS011;13626;48.128;11.628;2024-03-08T13:44:09;19.48;;;11.05;;
25780;SDS011;13626;48.128;11.628;2024-03-08T13:46:40;19.10;;;10.70;;
25780;SDS011;13626;48.128;11.628;2024-03-08T13:49:08;17.17;;;10.27;;
25780;SDS011;13626;48.128;11.628;2024-03-08T13:51:37;16.75;;;10.82;;
25780;SDS011;13626;48.128;11.628;2024-03-08T13:54:04;19.42;;;11.13;;
25780;SDS011;13626;48.128;11.628;2024-03-08T13:56:33;17.50;;;11.43;;
25780;SDS011;13626;48.128;11.628;2024-03-08T13:59:00;17.67;;;11.13;;
25780;SDS011;13626;48.128;11.628;2024-03-08T14:01:30;18.63;;;10.93;;
25780;SDS011;13626;48.128;11.628;2024-03-08T14:03:57;19.17;;;11.80;;
25780;SDS011;13626;48.128;11.628;2024-03-08T14:06:25;18.42;;;11.38;;
25780;SDS011;13626;48.128;11.628;2024-03-08T14:08:53;16.48;;;10.77;;
25780;SDS011;13626;48.128;11.628;2024-03-08T14:11:23;19.35;;;11.60;;
25780;SDS011;13626;48.128;11.628;2024-03-08T14:13:50;19.42;;;11.93;;
25780;SDS011;13626;48.128;11.628;2024-03-08T14:16:18;16.77;;;10.15;;
25780;SDS011;13626;48.128;11.628;2024-03-08T14:18:46;18.27;;;11.10;;
25780;SDS011;13626;48.128;11.628;2024-03-08T14:21:13;20.13;;;11.65;;
25780;SDS011;13626;48.128;11.628;2024-03-08T14:23:41;18.98;;;11.95;;
25780;SDS011;13626;48.128;11.628;2024-03-08T14:26:09;19.10;;;11.43;;
25780;SDS011;13626;48.128;11.628;2024-03-08T14:28:37;20.23;;;12.15;;
25780;SDS011;13626;48.128;11.628;2024-03-08T14:31:05;20.80;;;12.10;;